Time;durP1;ratioP1;P1;durP2;ratioP2;P2;SDS_P1;SDS_P2;PMS_P1;PMS_P2;Temp;Humidity;BMP_temperature;BMP_pressure;BME280_temperature;BME280_humidity;BME280_pressure;Samples;Min_cycle;Max_cycle;Signal;HPM_P1;HPM_P2
2023/03/14 06:02:27;;;;;;;;;3.33;3.33;;;;;-147.14;100.00;58812.66;4964933;23;45921;-60
2023/03/14 06:04:52;;;;;;;;;3.67;2.00;;;;;-147.14;100.00;58812.66;4912525;28;65263;-59
2023/03/14 06:07:18;;;;;;;;;5.33;4.00;;;;;-147.14;100.00;58812.66;4921817;28;45429;-60
2023/03/14 06:09:43;;;;;;;;;5.00;4.67;;;;;-147.14;100.00;58812.66;4922489;28;70063;-60
2023/03/14 06:12:08;;;;;;;;;3.33;2.33;;;;;-147.14;100.00;58812.66;4919271;28;64695;-59
2023/03/14 06:14:33;;;;;;;;;4.00;4.00;;;;;-147.14;100.00;58812.66;4921877;28;67516;-60
2023/03/14 06:16:59;;;;;;;;;3.33;3.00;;;;;-147.14;100.00;58812.66;4919393;28;47699;-59
2023/03/14 06:19:25;;;;;;;;;1.67;1.67;;;;;-147.14;100.00;58812.66;4914676;28;60129;-58
2023/03/14 06:21:51;;;;;;;;;1.67;1.67;;;;;-147.14;100.00;58812.66;4914923;28;45490;-59
2023/03/14 06:24:16;;;;;;;;;4.33;4.33;;;;;-147.14;100.00;58812.66;4916587;28;45486;-59
2023/03/14 06:26:42;;;;;;;;;5.33;3.00;;;;;-147.14;100.00;58812.66;4918981;28;45451;-59
2023/03/14 06:29:07;;;;;;;;;1.33;1.33;;;;;-147.14;100.00;58812.66;4915095;28;46368;-59
2023/03/14 06:31:33;;;;;;;;;3.67;3.33;;;;;-147.14;100.00;58812.66;4910028;28;46458;-59
2023/03/14 06:33:58;;;;;;;;;4.00;4.00;;;;;-147.14;100.00;58812.66;4898064;28;45558;-60
2023/03/14 06:36:24;;;;;;;;;1.00;1.00;;;;;-147.14;100.00;58812.66;4899371;28;47269;-58
2023/03/14 06:38:50;;;;;;;;;5.00;4.67;;;;;-147.14;100.00;58812.66;4916139;28;68634;-60
2023/03/14 06:41:15;;;;;;;;;8.00;4.33;;;;;-147.14;100.00;58812.66;4947055;28;45402;-60
2023/03/14 06:43:41;;;;;;;;;6.33;3.33;;;;;-147.14;100.00;58812.66;4910760;28;45637;-61
2023/03/14 06:46:06;;;;;;;;;4.00;1.33;;;;;-147.14;100.00;58812.66;4919708;28;73827;-60
2023/03/14 06:48:31;;;;;;;;;4.33;2.67;;;;;-147.14;100.00;58812.66;4904570;28;69256;-60
2023/03/14 06:50:57;;;;;;;;;6.00;3.00;;;;;-147.14;100.00;58812.66;4920806;28;53319;-60
2023/03/14 06:53:22;;;;;;;;;2.67;2.00;;;;;-147.14;100.00;58812.66;4919717;28;47412;-60
2023/03/14 06:55:47;;;;;;;;;6.00;3.33;;;;;-147.14;100.00;58812.66;4917897;28;56458;-60
2023/03/14 06:58:13;;;;;;;;;3.67;2.67;;;;;-147.14;100.00;58812.66;4926119;28;52665;-60
2023/03/14 07:00:38;;;;;;;;;7.00;3.00;;;;;-147.14;100.00;58812.66;4926942;28;51796;-60
2023/03/14 07:03:04;;;;;;;;;8.00;5.00;;;;;-147.14;100.00;58812.66;4922079;28;45468;-60
2023/03/14 07:05:29;;;;;;;;;3.33;3.00;;;;;-147.14;100.00;58812.66;4923513;28;70175;-60
2023/03/14 07:07:55;;;;;;;;;3.33;3.00;;;;;-147.14;100.00;58812.66;4919381;28;45486;-60
2023/03/14 07:10:21;;;;;;;;;2.33;2.33;;;;;-147.14;100.00;58812.66;4919691;28;45531;-60
2023/03/14 07:12:46;;;;;;;;;1.67;1.00;;;;;-147.14;100.00;58812.66;4926160;28;45332;-60
2023/03/14 07:15:11;;;;;;;;;2.67;2.67;;;;;-147.14;100.00;58812.66;4918615;28;74519;-60
2023/03/14 07:17:37;;;;;;;;;1.00;0.00;;;;;-147.14;100.00;58812.66;4922436;28;45547;-60
2023/03/14 07:20:04;;;;;;;;;3.33;2.00;;;;;-147.14;100.00;58812.66;4951165;28;55010;-60
2023/03/14 07:22:29;;;;;;;;;3.00;1.00;;;;;-147.14;100.00;58812.66;4929551;28;45585;-60
2023/03/14 07:24:55;;;;;;;;;2.00;2.00;;;;;-147.14;100.00;58812.66;4922272;28;45587;-60
2023/03/14 07:27:20;;;;;;;;;5.00;2.00;;;;;-147.14;100.00;58812.66;4924668;28;67979;-61
2023/03/14 07:29:45;;;;;;;;;3.00;1.00;;;;;-147.14;100.00;58812.66;4921665;28;45387;-60
2023/03/14 07:32:14;;;;;;;;;1.00;1.00;;;;;-147.14;100.00;58812.66;4927573;28;64634;-60
2023/03/14 07:34:40;;;;;;;;;3.00;1.00;;;;;-147.14;100.00;58812.66;4921003;28;45221;-60
2023/03/14 07:37:05;;;;;;;;;1.67;1.00;;;;;-147.14;100.00;58812.66;4911823;28;45234;-60
2023/03/14 07:39:31;;;;;;;;;2.00;2.00;;;;;-147.14;100.00;58812.66;4924910;28;65703;-60
2023/03/14 07:41:56;;;;;;;;;6.00;1.67;;;;;-147.14;100.00;58812.66;4924858;28;45514;-60
2023/03/14 07:44:21;;;;;;;;;5.00;2.00;;;;;-147.14;100.00;58812.66;4914557;28;69842;-60
2023/03/14 07:46:47;;;;;;;;;2.00;2.00;;;;;-147.14;100.00;58812.66;4915960;28;58780;-61
2023/03/14 07:49:12;;;;;;;;;4.33;2.00;;;;;-147.14;100.00;58812.66;4920078;28;45363;-61
2023/03/14 07:51:37;;;;;;;;;2.00;1.00;;;;;-147.14;100.00;58812.66;4916585;28;45579;-61
2023/03/14 07:54:03;;;;;;;;;3.00;2.00;;;;;-147.14;100.00;58812.66;4916447;28;73382;-61
2023/03/14 07:56:28;;;;;;;;;4.00;2.00;;;;;-147.14;100.00;58812.66;4916529;28;45412;-60
2023/03/14 07:58:53;;;;;;;;;4.67;2.67;;;;;-147.14;100.00;58812.66;4923865;28;45535;-60
2023/03/14 08:01:19;;;;;;;;;3.00;2.00;;;;;-147.14;100.00;58812.66;4941145;28;67268;-61
2023/03/14 08:03:44;;;;;;;;;2.33;1.00;;;;;-147.14;100.00;58812.66;4918816;28;46249;-60
2023/03/14 08:06:10;;;;;;;;;1.00;1.00;;;;;-147.14;100.00;58812.66;4917544;28;45481;-60
2023/03/14 08:08:35;;;;;;;;;4.33;1.00;;;;;-147.14;100.00;58812.66;4911557;28;60080;-61
2023/03/14 08:11:05;;;;;;;;;4.00;2.67;;;;;-147.14;100.00;58812.66;4919153;28;45412;-60
2023/03/14 08:13:30;;;;;;;;;6.00;2.00;;;;;-147.14;100.00;58812.66;4941586;28;47255;-60
2023/03/14 08:15:55;;;;;;;;;1.33;1.33;;;;;-147.14;100.00;58812.66;4916327;28;70268;-60
2023/03/14 08:18:21;;;;;;;;;4.33;1.00;;;;;-147.14;100.00;58812.66;4915837;28;63335;-61
2023/03/14 08:20:46;;;;;;;;;2.33;2.33;;;;;-147.14;100.00;58812.66;4917640;28;64145;-60
2023/03/14 08:23:11;;;;;;;;;3.33;1.67;;;;;-147.14;100.00;58812.66;4947155;28;57243;-60
2023/03/14 08:25:37;;;;;;;;;2.00;2.00;;;;;-147.14;100.00;58812.66;4932720;28;58808;-60
2023/03/14 08:28:04;;;;;;;;;3.33;2.00;;;;;-147.14;100.00;58812.66;4948858;28;45502;-60
2023/03/14 08:30:29;;;;;;;;;3.67;2.00;;;;;-147.14;100.00;58812.66;4929457;28;45418;-60
2023/03/14 08:32:57;;;;;;;;;1.00;1.00;;;;;-147.14;100.00;58812.66;4915710;28;46640;-60
2023/03/14 08:35:22;;;;;;;;;4.33;2.67;;;;;-147.14;100.00;58812.66;4919645;28;45582;-60
2023/03/14 08:37:47;;;;;;;;;2.67;0.33;;;;;-147.14;100.00;58812.66;4918278;28;64251;-60
2023/03/14 08:40:13;;;;;;;;;5.67;2.00;;;;;-147.14;100.00;58812.66;4919178;28;66363;-60
2023/03/14 08:42:39;;;;;;;;;9.67;9.00;;;;;-147.14;100.00;58812.66;4899493;28;48138;-60
2023/03/14 08:45:06;;;;;;;;;7.00;5.33;;;;;-147.14;100.00;58812.66;4945079;28;45628;-61
2023/03/14 08:47:31;;;;;;;;;4.00;3.00;;;;;-147.14;100.00;58812.66;4918622;28;45612;-61
2023/03/14 08:49:56;;;;;;;;;1.67;1.33;;;;;-147.14;100.00;58812.66;4926257;28;69279;-60
2023/03/14 08:52:22;;;;;;;;;6.33;3.00;;;;;-147.14;100.00;58812.66;4915438;28;45474;-60
2023/03/14 08:54:47;;;;;;;;;4.00;1.00;;;;;-147.14;100.00;58812.66;4917739;28;45317;-60
2023/03/14 08:57:13;;;;;;;;;1.00;1.00;;;;;-147.14;100.00;58812.66;4944714;28;62342;-60
2023/03/14 08:59:38;;;;;;;;;3.00;1.00;;;;;-147.14;100.00;58812.66;4899471;28;48052;-61
2023/03/14 09:02:04;;;;;;;;;2.00;2.00;;;;;-147.14;100.00;58812.66;4918048;28;59526;-61
2023/03/14 09:04:30;;;;;;;;;2.00;2.00;;;;;-147.14;100.00;58812.66;4931920;28;69384;-61
2023/03/14 09:06:57;;;;;;;;;4.00;2.67;;;;;-147.14;100.00;58812.66;4919629;28;45297;-61
2023/03/14 09:09:23;;;;;;;;;5.00;2.00;;;;;-147.14;100.00;58812.66;4919517;28;45570;-63
2023/03/14 09:11:48;;;;;;;;;4.67;4.67;;;;;-147.14;100.00;58812.66;4919091;28;45422;-61
2023/03/14 09:14:14;;;;;;;;;8.00;2.00;;;;;-147.14;100.00;58812.66;4950106;28;55045;-60
2023/03/14 09:16:39;;;;;;;;;2.00;0.33;;;;;-147.14;100.00;58812.66;4952069;28;45859;-60
2023/03/14 09:19:05;;;;;;;;;1.00;1.00;;;;;-147.14;100.00;58812.66;4921576;28;45412;-60
2023/03/14 09:21:31;;;;;;;;;0.00;0.00;;;;;-147.14;100.00;58812.66;4919662;28;48017;-60
2023/03/14 09:23:56;;;;;;;;;3.33;0.00;;;;;-147.14;100.00;58812.66;4921809;28;67759;-60
2023/03/14 09:26:21;;;;;;;;;1.00;1.00;;;;;-147.14;100.00;58812.66;4943045;28;61912;-61
2023/03/14 09:28:47;;;;;;;;;0.67;0.67;;;;;-147.14;100.00;58812.66;4922633;28;63304;-61
2023/03/14 09:31:12;;;;;;;;;0.00;0.00;;;;;-147.14;100.00;58812.66;4919429;28;47805;-61
2023/03/14 09:33:38;;;;;;;;;1.00;1.00;;;;;-147.14;100.00;58812.66;4920259;28;61854;-60
2023/03/14 09:36:04;;;;;;;;;1.00;1.00;;;;;-147.14;100.00;58812.66;4920654;28;45471;-63
2023/03/14 09:38:29;;;;;;;;;6.00;0.00;;;;;-147.14;100.00;58812.66;4937650;28;45522;-61
2023/03/14 09:40:58;;;;;;;;;0.00;0.00;;;;;-147.14;100.00;58812.66;4948293;28;64439;-61
2023/03/14 09:43:24;;;;;;;;;4.00;1.00;;;;;-147.14;100.00;58812.66;4937544;28;45528;-60
2023/03/14 09:45:50;;;;;;;;;1.00;1.00;;;;;-147.14;100.00;58812.66;4919927;28;45649;-60
2023/03/14 09:48:20;;;;;;;;;1.00;1.00;;;;;-147.14;100.00;58812.66;4920577;28;45327;-61
2023/03/14 09:50:49;;;;;;;;;2.00;2.00;;;;;-147.14;100.00;58812.66;4921701;28;45468;-60
2023/03/14 09:53:17;;;;;;;;;3.00;1.00;;;;;-147.14;100.00;58812.66;4952211;28;45298;-61
2023/03/14 09:55:48;;;;;;;;;0.00;0.00;;;;;-147.14;100.00;58812.66;4953300;28;45405;-60
2023/03/14 09:58:18;;;;;;;;;2.67;0.00;;;;;-147.14;100.00;58812.66;4911537;28;46248;-60
2023/03/14 10:00:43;;;;;;;;;1.33;0.00;;;;;-147.14;100.00;58812.66;4919961;28;46813;-60
2023/03/14 10:03:12;;;;;;;;;3.00;1.00;;;;;-147.14;100.00;58812.66;4916370;28;45589;-60
2023/03/14 10:05:39;;;;;;;;;0.00;0.00;;;;;-147.14;100.00;58812.66;4922497;28;45450;-60
2023/03/14 10:08:04;;;;;;;;;1.00;1.00;;;;;-147.14;100.00;58812.66;4934547;28;45617;-61
2023/03/14 10:10:30;;;;;;;;;1.00;1.00;;;;;-147.14;100.00;58812.66;4950950;28;46610;-60
2023/03/14 10:12:56;;;;;;;;;5.33;0.00;;;;;-147.14;100.00;58812.66;4912525;28;45517;-60
2023/03/14 10:15:33;;;;;;;;;2.00;0.00;;;;;-147.14;100.00;58812.66;4921776;28;45642;-60
2023/03/14 10:18:01;;;;;;;;;2.00;0.00;;;;;-147.14;100.00;58812.66;4946251;28;45506;-60
2023/03/14 10:20:35;;;;;;;;;1.00;1.00;;;;;-147.14;100.00;58812.66;4933728;28;45621;-60
2023/03/14 10:23:03;;;;;;;;;0.00;0.00;;;;;-147.14;100.00;58812.66;4948680;28;45445;-60
2023/03/14 10:25:33;;;;;;;;;2.33;0.00;;;;;-147.14;100.00;58812.66;4915058;28;45408;-61
2023/03/14 10:27:59;;;;;;;;;0.00;0.00;;;;;-147.14;100.00;58812.66;4928733;28;46204;-61
2023/03/14 10:30:43;;;;;;;;;3.33;1.00;;;;;-147.14;100.00;58812.66;4919684;28;45518;-61
2023/03/14 10:33:22;;;;;;;;;0.67;0.67;;;;;-147.14;100.00;58812.66;4950490;28;45439;-61
2023/03/14 10:36:01;;;;;;;;;2.00;2.00;;;;;-147.14;100.00;58812.66;4919798;28;45372;-61
2023/03/14 10:38:28;;;;;;;;;1.00;1.00;;;;;-147.14;100.00;58812.66;4952245;28;45520;-61
2023/03/14 10:40:55;;;;;;;;;0.75;0.75;;;;;-147.14;100.00;58812.66;4920281;28;46535;-61
2023/03/14 10:43:31;;;;;;;;;0.00;0.00;;;;;-147.14;100.00;58812.66;4904150;28;45657;-61
2023/03/14 10:46:02;;;;;;;;;0.50;0.50;;;;;-147.14;100.00;58812.66;4948894;28;45436;-61
2023/03/14 10:48:37;;;;;;;;;0.75;0.75;;;;;-147.14;100.00;58812.66;4952179;28;45335;-61
2023/03/14 10:51:10;;;;;;;;;1.50;0.00;;;;;-147.14;100.00;58812.66;4919426;28;48103;-61
2023/03/14 10:53:50;;;;;;;;;2.00;0.00;;;;;-147.14;100.00;58812.66;4950459;28;45398;-61
2023/03/14 10:56:20;;;;;;;;;2.00;0.25;;;;;-147.14;100.00;58812.66;4927260;28;45365;-61
2023/03/14 10:58:50;;;;;;;;;1.50;1.00;;;;;-147.14;100.00;58812.66;4926907;28;45871;-61
2023/03/14 11:01:42;;;;;;;;;1.50;1.00;;;;;-147.14;100.00;58812.66;4943223;28;46078;-61
2023/03/14 11:04:15;;;;;;;;;1.00;1.00;;;;;-147.14;100.00;58812.66;4942656;28;45412;-61
2023/03/14 11:06:58;;;;;;;;;0.50;0.50;;;;;-147.14;100.00;58812.66;4952339;28;45914;-62
2023/03/14 11:09:38;;;;;;;;;3.00;1.00;;;;;-147.14;100.00;58812.66;4920640;28;45690;-62
2023/03/14 11:12:17;;;;;;;;;0.75;0.00;;;;;-147.14;100.00;58812.66;4948653;28;45437;-61
2023/03/14 11:14:47;;;;;;;;;0.00;0.00;;;;;-147.14;100.00;58812.66;4919669;28;45634;-61
2023/03/14 11:17:31;;;;;;;;;0.75;0.75;;;;;-147.14;100.00;58812.66;4952551;28;45442;-61
2023/03/14 11:20:18;;;;;;;;;0.75;0.00;;;;;-147.14;100.00;58812.66;4950488;28;45582;-60
2023/03/14 11:22:59;;;;;;;;;3.00;2.00;;;;;-147.14;100.00;58812.66;4922455;28;45604;-59
2023/03/14 11:26:01;;;;;;;;;1.60;0.40;;;;;-147.14;100.00;58812.66;4921397;28;45402;-59
2023/03/14 11:28:37;;;;;;;;;2.00;0.50;;;;;-147.14;100.00;58812.66;4917202;28;45507;-59
2023/03/14 11:31:15;;;;;;;;;0.00;0.00;;;;;-147.14;100.00;58812.66;4934911;28;45517;-59
2023/03/14 11:33:47;;;;;;;;;2.00;1.00;;;;;-147.14;100.00;58812.66;4950932;28;45569;-59
2023/03/14 11:36:26;;;;;;;;;2.00;1.00;;;;;-147.14;100.00;58812.66;4920493;28;45300;-58
2023/03/14 11:38:57;;;;;;;;;1.75;0.50;;;;;-147.14;100.00;58812.66;4933714;28;45278;-59
2023/03/14 11:41:36;;;;;;;;;1.00;1.00;;;;;-147.14;100.00;58812.66;4914635;28;46049;-55
2023/03/14 11:44:10;;;;;;;;;2.00;1.00;;;;;-147.14;100.00;58812.66;4916255;28;45418;-63
2023/03/14 11:47:10;;;;;;;;;1.00;0.00;;;;;-147.14;100.00;58812.66;4948217;28;46218;-62
2023/03/14 11:49:49;;;;;;;;;1.00;1.00;;;;;-147.14;100.00;58812.66;4915855;28;45458;-61
2023/03/14 11:52:19;;;;;;;;;4.50;1.00;;;;;-147.14;100.00;58812.66;4916825;28;46123;-61
2023/03/14 11:54:50;;;;;;;;;0.00;0.00;;;;;-147.14;100.00;58812.66;4919562;28;46415;-64
2023/03/14 11:57:18;;;;;;;;;1.75;0.00;;;;;-147.14;100.00;58812.66;4917241;28;45507;-65
2023/03/14 12:00:00;;;;;;;;;0.00;0.00;;;;;-147.14;100.00;58812.66;4948142;28;45723;-62
2023/03/14 12:02:40;;;;;;;;;0.50;0.00;;;;;-147.14;100.00;58812.66;4917908;28;45464;-67
2023/03/14 12:05:43;;;;;;;;;0.00;0.00;;;;;-147.14;100.00;58812.66;4918139;28;45438;-69
2023/03/14 12:08:09;;;;;;;;;0.75;0.75;;;;;-147.14;100.00;58812.66;4916350;28;45563;-55
2023/03/14 12:10:44;;;;;;;;;2.00;1.00;;;;;-147.14;100.00;58812.66;4919553;28;45616;-55
2023/03/14 12:13:11;;;;;;;;;3.50;0.00;;;;;-147.14;100.00;58812.66;4932402;28;45510;-59
2023/03/14 12:15:46;;;;;;;;;0.00;0.00;;;;;-147.14;100.00;58812.66;4949540;28;45764;-54
2023/03/14 12:18:20;;;;;;;;;1.50;0.00;;;;;-147.14;100.00;58812.66;4916069;28;45556;-60
2023/03/14 12:21:01;;;;;;;;;0.75;0.00;;;;;-147.14;100.00;58812.66;4916988;28;45602;-54
2023/03/14 12:23:28;;;;;;;;;0.00;0.00;;;;;-147.14;100.00;58812.66;4918489;28;45807;-59
2023/03/14 12:26:11;;;;;;;;;0.00;0.00;;;;;-147.14;100.00;58812.66;4916729;28;46050;-55
2023/03/14 12:28:39;;;;;;;;;0.25;0.25;;;;;-147.14;100.00;58812.66;4916930;28;45517;-59
2023/03/14 12:31:30;;;;;;;;;0.00;0.00;;;;;-147.14;100.00;58812.66;4918220;28;45483;-56
2023/03/14 12:34:03;;;;;;;;;2.00;1.00;;;;;-147.14;100.00;58812.66;4918286;28;45561;-55
2023/03/14 12:36:53;;;;;;;;;0.75;0.75;;;;;-147.14;100.00;58812.66;4917422;28;46646;-54
2023/03/14 12:39:54;;;;;;;;;0.00;0.00;;;;;-147.14;100.00;58812.66;4918579;28;45697;-54
2023/03/14 12:42:40;;;;;;;;;3.50;0.50;;;;;-147.14;100.00;58812.66;4927673;28;45568;-55
2023/03/14 12:45:22;;;;;;;;;0.00;0.00;;;;;-147.14;100.00;58812.66;4912800;28;45673;-60
2023/03/14 12:47:52;;;;;;;;;0.50;0.50;;;;;-147.14;100.00;58812.66;4916944;28;46349;-48
2023/03/14 12:50:32;;;;;;;;;2.75;1.00;;;;;-147.14;100.00;58812.66;4918280;28;45501;-51
2023/03/14 12:53:09;;;;;;;;;1.00;1.00;;;;;-147.14;100.00;58812.66;4918954;28;45422;-49
2023/03/14 12:56:05;;;;;;;;;0.25;0.00;;;;;-147.14;100.00;58812.66;4922411;28;45612;-50
2023/03/14 12:58:31;;;;;;;;;3.75;0.25;;;;;-147.14;100.00;58812.66;4918448;28;45299;-51
2023/03/14 13:00:59;;;;;;;;;0.50;0.50;;;;;-147.14;100.00;58812.66;4921886;28;45313;-48
2023/03/14 13:03:36;;;;;;;;;1.00;1.00;;;;;-147.14;100.00;58812.66;4920080;28;45628;-48
2023/03/14 13:06:04;;;;;;;;;0.00;0.00;;;;;-147.14;100.00;58812.66;4922663;28;45432;-50
2023/03/14 13:08:37;;;;;;;;;0.00;0.00;;;;;-147.14;100.00;58812.66;4920100;28;46011;-49
2023/03/14 13:11:08;;;;;;;;;0.67;0.67;;;;;-147.14;100.00;58812.66;4918472;28;45645;-52
2023/03/14 13:13:35;;;;;;;;;2.67;0.00;;;;;-147.14;100.00;58812.66;4921573;28;45287;-49
2023/03/14 13:16:04;;;;;;;;;0.33;0.33;;;;;-147.14;100.00;58812.66;4921221;28;45528;-48
2023/03/14 13:18:35;;;;;;;;;0.00;0.00;;;;;-147.14;100.00;58812.66;4917413;28;45385;-51
2023/03/14 13:21:17;;;;;;;;;0.67;0.67;;;;;-147.14;100.00;58812.66;4914235;28;45443;-48
2023/03/14 13:24:05;;;;;;;;;2.00;0.00;;;;;-147.14;100.00;58812.66;4954149;28;45408;-51
2023/03/14 13:26:49;;;;;;;;;0.67;0.67;;;;;-147.14;100.00;58812.66;4920638;28;45606;-49
2023/03/14 13:29:23;;;;;;;;;0.00;0.00;;;;;-147.14;100.00;58812.66;4947461;28;46311;-50
2023/03/14 13:31:53;;;;;;;;;1.00;0.33;;;;;-147.14;100.00;58812.66;4903070;28;45516;-50
2023/03/14 13:34:19;;;;;;;;;0.33;0.00;;;;;-147.14;100.00;58812.66;4921732;28;45394;-48
2023/03/14 13:36:45;;;;;;;;;3.33;0.33;;;;;-147.14;100.00;58812.66;4920719;28;48056;-49
2023/03/14 13:39:13;;;;;;;;;2.00;1.00;;;;;-147.14;100.00;58812.66;4920331;28;59898;-51
2023/03/14 13:41:40;;;;;;;;;1.00;1.00;;;;;-147.14;100.00;58812.66;4919003;28;46975;-48
2023/03/14 13:44:08;;;;;;;;;0.33;0.33;;;;;-147.14;100.00;58812.66;4952486;28;46696;-51
2023/03/14 13:46:35;;;;;;;;;0.33;0.33;;;;;-147.14;100.00;58812.66;4950292;28;45386;-50
2023/03/14 13:49:10;;;;;;;;;0.00;0.00;;;;;-147.14;100.00;58812.66;4937062;28;47379;-58
2023/03/14 13:51:38;;;;;;;;;0.00;0.00;;;;;-147.14;100.00;58812.66;4943156;28;45509;-60
2023/03/14 13:54:03;;;;;;;;;2.00;0.00;;;;;-147.14;100.00;58812.66;4951727;28;45638;-59
2023/03/14 13:56:31;;;;;;;;;2.33;0.00;;;;;-147.14;100.00;58812.66;4950390;28;64490;-58
2023/03/14 13:58:57;;;;;;;;;2.67;2.00;;;;;-147.14;100.00;58812.66;4938984;28;45489;-59
2023/03/14 14:01:26;;;;;;;;;2.67;0.00;;;;;-147.14;100.00;58812.66;4920498;28;48573;-58
2023/03/14 14:03:54;;;;;;;;;1.00;0.00;;;;;-147.14;100.00;58812.66;4926419;28;45481;-60
2023/03/14 14:06:51;;;;;;;;;1.33;0.00;;;;;-147.14;100.00;58812.66;4905143;28;45415;-60
2023/03/14 14:09:20;;;;;;;;;1.67;1.67;;;;;-147.14;100.00;58812.66;4908563;28;45914;-60
2023/03/14 14:11:51;;;;;;;;;0.00;0.00;;;;;-147.14;100.00;58812.66;4914661;28;47755;-60
2023/03/14 14:14:25;;;;;;;;;0.00;0.00;;;;;-147.14;100.00;58812.66;4916296;28;45505;-60
2023/03/14 14:16:51;;;;;;;;;0.67;0.00;;;;;-147.14;100.00;58812.66;4932391;28;45633;-59
2023/03/14 14:19:18;;;;;;;;;0.00;0.00;;;;;-147.14;100.00;58812.66;4910965;28;73882;-60
2023/03/14 14:21:43;;;;;;;;;3.00;0.00;;;;;-147.14;100.00;58812.66;4920746;28;45442;-59
2023/03/14 14:24:14;;;;;;;;;0.00;0.00;;;;;-147.14;100.00;58812.66;4918644;28;67593;-59
2023/03/14 14:26:41;;;;;;;;;2.67;0.00;;;;;-147.14;100.00;58812.66;4928382;28;45435;-57
2023/03/14 14:29:06;;;;;;;;;0.00;0.00;;;;;-147.14;100.00;58812.66;4935518;28;47315;-58
2023/03/14 14:31:32;;;;;;;;;0.00;0.00;;;;;-147.14;100.00;58812.66;4919326;28;45478;-59
2023/03/14 14:34:02;;;;;;;;;0.00;0.00;;;;;-147.14;100.00;58812.66;4917923;28;63952;-58
2023/03/14 14:36:31;;;;;;;;;0.00;0.00;;;;;-147.14;100.00;58812.66;4919981;28;45381;-59
2023/03/14 14:39:04;;;;;;;;;0.00;0.00;;;;;-147.14;100.00;58812.66;4949960;28;46973;-59
2023/03/14 14:41:32;;;;;;;;;0.00;0.00;;;;;-147.14;100.00;58812.66;4951284;28;45511;-59
2023/03/14 14:43:59;;;;;;;;;0.00;0.00;;;;;-147.14;100.00;58812.66;4919815;28;45430;-59
2023/03/14 14:46:27;;;;;;;;;0.00;0.00;;;;;-147.14;100.00;58812.66;4920372;28;45548;-59
2023/03/14 14:48:56;;;;;;;;;0.00;0.00;;;;;-147.14;100.00;58812.66;4919912;28;48235;-59
2023/03/14 14:51:31;;;;;;;;;0.00;0.00;;;;;-147.14;100.00;58812.66;4914841;28;45674;-59
2023/03/14 14:54:04;;;;;;;;;0.00;0.00;;;;;-147.14;100.00;58812.66;4915971;28;45590;-59
2023/03/14 14:56:29;;;;;;;;;0.00;0.00;;;;;-147.14;100.00;58812.66;4942378;28;45517;-59
2023/03/14 14:58:58;;;;;;;;;2.00;0.00;;;;;-147.14;100.00;58812.66;4919653;28;46003;-59
2023/03/14 15:01:29;;;;;;;;;1.00;0.00;;;;;-147.14;100.00;58812.66;4928089;28;45429;-59
2023/03/14 15:03:55;;;;;;;;;1.00;0.00;;;;;-147.14;100.00;58812.66;4905603;28;45483;-60
2023/03/14 15:06:21;;;;;;;;;1.00;0.00;;;;;-147.14;100.00;58812.66;4916216;28;63236;-60
2023/03/14 15:08:48;;;;;;;;;0.67;0.00;;;;;-147.14;100.00;58812.66;4921484;28;46705;-59
2023/03/14 15:11:24;;;;;;;;;0.00;0.00;;;;;-147.14;100.00;58812.66;4911629;28;45466;-59
2023/03/14 15:13:53;;;;;;;;;0.67;0.00;;;;;-147.14;100.00;58812.66;4941401;28;45316;-60
2023/03/14 15:16:25;;;;;;;;;1.00;1.00;;;;;-147.14;100.00;58812.66;4949795;28;45619;-59
2023/03/14 15:18:56;;;;;;;;;10.00;8.00;;;;;-147.14;100.00;58812.66;4942881;28;46959;-60
2023/03/14 15:21:22;;;;;;;;;0.00;0.00;;;;;-147.14;100.00;58812.66;4919278;28;45369;-60
2023/03/14 15:23:47;;;;;;;;;1.33;0.00;;;;;-147.14;100.00;58812.66;4949425;28;45417;-59
2023/03/14 15:26:16;;;;;;;;;0.00;0.00;;;;;-147.14;100.00;58812.66;4919768;28;64759;-59
2023/03/14 15:28:41;;;;;;;;;0.00;0.00;;;;;-147.14;100.00;58812.66;4943886;28;45509;-60
2023/03/14 15:31:11;;;;;;;;;2.00;0.33;;;;;-147.14;100.00;58812.66;4919621;28;45338;-60
2023/03/14 15:33:37;;;;;;;;;0.00;0.00;;;;;-147.14;100.00;58812.66;4913379;28;45493;-60
2023/03/14 15:36:03;;;;;;;;;0.00;0.00;;;;;-147.14;100.00;58812.66;4948535;28;45456;-60
2023/03/14 15:38:29;;;;;;;;;2.33;0.00;;;;;-147.14;100.00;58812.66;4920198;28;45429;-59
2023/03/14 15:40:54;;;;;;;;;0.00;0.00;;;;;-147.14;100.00;58812.66;4920221;28;45387;-59
2023/03/14 15:43:20;;;;;;;;;0.33;0.00;;;;;-147.14;100.00;58812.66;4930815;28;62049;-59
2023/03/14 15:45:46;;;;;;;;;1.00;1.00;;;;;-147.14;100.00;58812.66;4918145;28;45868;-59
2023/03/14 15:48:19;;;;;;;;;1.00;1.00;;;;;-147.14;100.00;58812.66;4934973;28;48139;-59
2023/03/14 15:50:45;;;;;;;;;0.67;0.33;;;;;-147.14;100.00;58812.66;4919694;28;45366;-59
2023/03/14 15:53:10;;;;;;;;;2.00;1.00;;;;;-147.14;100.00;58812.66;4919181;28;45514;-60
2023/03/14 15:55:36;;;;;;;;;1.00;1.00;;;;;-147.14;100.00;58812.66;4902414;28;45434;-59
2023/03/14 15:58:02;;;;;;;;;0.67;0.67;;;;;-147.14;100.00;58812.66;4924245;28;45489;-60
2023/03/14 16:00:28;;;;;;;;;3.67;0.33;;;;;-147.14;100.00;58812.66;4944603;28;45540;-59
2023/03/14 16:02:54;;;;;;;;;1.00;0.00;;;;;-147.14;100.00;58812.66;4918235;28;45509;-60
2023/03/14 16:05:19;;;;;;;;;2.00;0.00;;;;;-147.14;100.00;58812.66;4901879;28;45553;-59
2023/03/14 16:07:45;;;;;;;;;0.00;0.00;;;;;-147.14;100.00;58812.66;4947160;28;67569;-60
2023/03/14 16:10:11;;;;;;;;;3.00;1.00;;;;;-147.14;100.00;58812.66;4944544;28;45326;-59
2023/03/14 16:12:37;;;;;;;;;0.00;0.00;;;;;-147.14;100.00;58812.66;4945967;28;46167;-60
2023/03/14 16:15:03;;;;;;;;;0.00;0.00;;;;;-147.14;100.00;58812.66;4916942;28;67229;-59
2023/03/14 16:17:28;;;;;;;;;1.33;1.33;;;;;-147.14;100.00;58812.66;4921958;28;46538;-59
2023/03/14 16:19:53;;;;;;;;;1.00;0.00;;;;;-147.14;100.00;58812.66;4920358;28;45428;-59
2023/03/14 16:22:19;;;;;;;;;1.00;0.67;;;;;-147.14;100.00;58812.66;4919381;28;46652;-58
2023/03/14 16:24:44;;;;;;;;;0.00;0.00;;;;;-147.14;100.00;58812.66;4918393;28;45921;-58
2023/03/14 16:27:10;;;;;;;;;4.00;1.00;;;;;-147.14;100.00;58812.66;4918843;28;45989;-58
2023/03/14 16:29:35;;;;;;;;;1.67;1.00;;;;;-147.14;100.00;58812.66;4917054;28;45514;-59
2023/03/14 16:32:01;;;;;;;;;0.00;0.00;;;;;-147.14;100.00;58812.66;4920835;28;45458;-59
2023/03/14 16:34:26;;;;;;;;;0.33;0.33;;;;;-147.14;100.00;58812.66;4946846;28;63135;-59
2023/03/14 16:36:51;;;;;;;;;1.67;1.00;;;;;-147.14;100.00;58812.66;4944319;28;60088;-60
2023/03/14 16:39:18;;;;;;;;;3.00;1.00;;;;;-147.14;100.00;58812.66;4912639;28;46137;-59
2023/03/14 16:41:43;;;;;;;;;2.00;0.00;;;;;-147.14;100.00;58812.66;4901767;28;45593;-59
2023/03/14 16:44:08;;;;;;;;;2.00;1.00;;;;;-147.14;100.00;58812.66;4917620;28;45638;-59
2023/03/14 16:46:35;;;;;;;;;0.33;0.33;;;;;-147.14;100.00;58812.66;4916115;28;55355;-59
2023/03/14 16:49:00;;;;;;;;;2.00;1.00;;;;;-147.14;100.00;58812.66;4916584;28;45626;-59
2023/03/14 16:51:26;;;;;;;;;3.00;2.00;;;;;-147.14;100.00;58812.66;4943129;28;45490;-58
2023/03/14 16:53:51;;;;;;;;;4.00;2.00;;;;;-147.14;100.00;58812.66;4919485;28;66387;-59
2023/03/14 16:56:17;;;;;;;;;1.67;1.00;;;;;-147.14;100.00;58812.66;4922861;28;46181;-58
2023/03/14 16:58:43;;;;;;;;;0.00;0.00;;;;;-147.14;100.00;58812.66;4899555;28;45852;-58
2023/03/14 17:01:16;;;;;;;;;1.33;1.00;;;;;-147.14;100.00;58812.66;4919748;28;45628;-59
2023/03/14 17:03:49;;;;;;;;;0.00;0.00;;;;;-147.14;100.00;58812.66;4903405;28;45938;-58
2023/03/14 17:06:23;;;;;;;;;0.00;0.00;;;;;-147.14;100.00;58812.66;4915174;28;46021;-58
2023/03/14 17:08:49;;;;;;;;;1.00;1.00;;;;;-147.14;100.00;58812.66;4916121;28;47262;-60
2023/03/14 17:11:15;;;;;;;;;1.00;1.00;;;;;-147.14;100.00;58812.66;4919267;28;45482;-59
2023/03/14 17:13:40;;;;;;;;;2.33;1.00;;;;;-147.14;100.00;58812.66;4917966;28;45648;-59
2023/03/14 17:16:06;;;;;;;;;1.00;1.00;;;;;-147.14;100.00;58812.66;4929245;28;46207;-60
2023/03/14 17:18:32;;;;;;;;;2.00;0.33;;;;;-147.14;100.00;58812.66;4911074;28;46421;-61
2023/03/14 17:20:58;;;;;;;;;0.33;0.33;;;;;-147.14;100.00;58812.66;4916532;28;58934;-59